Main page
METAR-TAF:

METAR-TAF

Airports :

Sarajevo International Airport

Sarajevo, Bosnia and Herzegovina

latitude: 43-49N, longitude: 018-20E, elevation: 511 m

Current weather observation

The report was made 39 minutes ago, at 18:30 UTC
Wind 1 kt from variable directions
Temperature 6°C
Humidity 93%
Pressure 1027 hPa
Visibility: 6000 m

METAR: LQSA 131830Z VRB01KT 6000 NSC 06/05 Q1027 NOSIG

Time: 20:09 (19:09 UTC)

Forecast

The report was made 2 hours and 4 minutes ago, at 17:05 UTC
Forecast valid from 13 at 18 UTC to 14 at 18 UTC
Wind 2 kt from variable directions
Visibility 10 km or more
Scattered clouds at a height of 5000 ft
Probability 40%
from 13 at 20 UTC to 14 at 04 UTC
Visibility: 4000 m
mist
Probability 30% :
Temporary
from 14 at 10 UTC to 14 at 15 UTC
Wind 10 kt from the West/Northwest

TAF: LQSA 131705Z 1318/1418 VRB02KT 9999 SCT050 TX14/1413Z TN02/1418Z PROB40 1320/1404 4000 BR PROB30 TEMPO 1410/1415 30010KT

Weather observations and forecasts of more than 4000 airports (METAR and TAF reports).

The available stations are represented by yellow and red dots on the map.

Hover mouse over dot to see the name of the station.

Then click to see weather observations and forecasts.

To change the map : click on the green buttons with a black cross to zoom in, on the green button with a dash to zoom out, or on the green arrows for adjacent maps.


METAR-TAF: